METAR :
WARR 180630Z 07008KT 9999 FEW020 31/21 Q1011 NOSIG

SPECI :

NO SPECI
TAFOR :